YKD weather

Kincardine Municipal Airport
Kincardine, Ontario, Canada

Public forecast

Using degrees Celsius for public forecast. Weather courtesy of forecast.io.

METAR (pilot weather report)

Closest report is Wiarton Airport, 39.1 nm (72.4 km) NNE. Retrieved 2019/04/25 21:00 UTC (20 minutes ago):

CYVV 252100Z 35003KT 300V060 15SM SCT250 15/03 A2979 RMK CI4 SLP095 DENSITY ALT 1100FT

TAF (pilot weather forecast)

Closest forecast is Wiarton Airport, 39.1 nm (72.4 km) NNE. Retrieved 2019/04/25 20:00 UTC (1 hour ago):

TAF CYVV 251938Z 2520/2523 29010KT P6SM FEW240 RMK NXT FCST WILL BE ISSUED AT 261045Z